createdAt,value
2017-03-28T00:00:45.928Z,5.32
2017-03-28T00:01:40.903Z,5.25
2017-03-28T00:02:40.987Z,5.14
2017-03-28T00:03:36.094Z,5.08
2017-03-28T00:04:31.051Z,5.02
2017-03-28T00:05:31.045Z,4.94
2017-03-28T00:06:26.082Z,4.90
2017-03-28T00:07:21.294Z,4.86
2017-03-28T00:08:21.311Z,4.81
2017-03-28T00:09:16.170Z,4.79
2017-03-28T00:10:11.234Z,4.82
2017-03-28T00:11:12.300Z,4.87
2017-03-28T00:12:12.278Z,4.93
2017-03-28T00:13:12.290Z,4.99
2017-03-28T00:14:12.350Z,5.02
2017-03-28T00:15:13.351Z,5.04
2017-03-28T00:16:14.367Z,5.06
2017-03-28T00:17:08.386Z,5.08
2017-03-28T00:18:02.464Z,5.10
2017-03-28T00:18:51.486Z,5.14
2017-03-28T00:19:40.569Z,5.13
2017-03-28T00:20:29.567Z,5.12
2017-03-28T00:21:30.604Z,5.10
2017-03-28T00:22:30.607Z,5.06
2017-03-28T00:23:25.643Z,5.00
2017-03-28T00:24:25.603Z,4.94
2017-03-28T00:25:19.807Z,4.87
2017-03-28T00:26:14.756Z,4.79
2017-03-28T00:27:03.753Z,4.74
2017-03-28T00:27:57.820Z,4.63
2017-03-28T00:28:51.831Z,4.52
2017-03-28T00:29:45.803Z,4.44
2017-03-28T00:30:34.854Z,4.38
2017-03-28T00:31:28.881Z,4.32
2017-03-28T00:32:28.919Z,4.30
2017-03-28T00:33:16.983Z,4.34
2017-03-28T00:34:12.059Z,4.34
2017-03-28T00:35:01.019Z,4.32
2017-03-28T00:35:55.149Z,4.33
2017-03-28T00:36:49.120Z,4.38
2017-03-28T00:37:38.157Z,4.38
2017-03-28T00:38:27.267Z,4.39
2017-03-28T00:39:21.264Z,4.41
2017-03-28T00:40:16.248Z,4.43
2017-03-28T00:41:11.292Z,4.41
2017-03-28T00:42:11.335Z,4.42
2017-03-28T00:43:06.341Z,4.44
2017-03-28T00:44:01.349Z,4.43
2017-03-28T00:45:01.335Z,4.44
2017-03-28T00:45:56.435Z,4.42
2017-03-28T00:46:56.453Z,4.42
2017-03-28T00:47:56.507Z,4.40
2017-03-28T00:48:56.570Z,4.36
2017-03-28T00:49:50.550Z,4.29
2017-03-28T00:50:50.538Z,4.17
2017-03-28T00:51:45.552Z,4.12
2017-03-28T00:52:41.030Z,4.03
2017-03-28T00:53:41.656Z,3.98
2017-03-28T00:54:41.672Z,3.92
2017-03-28T00:55:41.725Z,3.92
2017-03-28T00:56:36.757Z,3.92
2017-03-28T00:57:31.091Z,3.92
2017-03-28T00:58:30.758Z,3.89
2017-03-28T00:59:25.797Z,3.86
2017-03-28T01:00:31.854Z,3.86
2017-03-28T01:01:26.847Z,3.88
2017-03-28T01:02:20.852Z,3.90
2017-03-28T01:03:21.976Z,3.92
2017-03-28T01:04:16.965Z,3.88
2017-03-28T01:05:11.044Z,3.84
2017-03-28T01:06:12.042Z,3.76
2017-03-28T01:07:12.148Z,3.77
2017-03-28T01:08:12.049Z,3.75
2017-03-28T01:09:12.143Z,3.77
2017-03-28T01:10:13.320Z,3.76
2017-03-28T01:11:14.145Z,3.70
2017-03-28T01:12:08.150Z,3.70
2017-03-28T01:13:08.215Z,3.68
2017-03-28T01:14:03.249Z,3.66
2017-03-28T01:14:58.285Z,3.66
2017-03-28T01:15:58.295Z,3.62
2017-03-28T01:16:53.325Z,3.57
2017-03-28T01:17:48.440Z,3.55
2017-03-28T01:18:48.402Z,3.51
2017-03-28T01:19:43.464Z,3.48
2017-03-28T01:20:38.426Z,3.46
2017-03-28T01:21:39.474Z,3.43
2017-03-28T01:22:39.457Z,3.38
2017-03-28T01:23:39.534Z,3.34
2017-03-28T01:24:34.667Z,3.27
2017-03-28T01:25:34.537Z,3.26
2017-03-28T01:26:34.629Z,3.28
2017-03-28T01:27:28.689Z,3.25
2017-03-28T01:28:28.634Z,3.26
2017-03-28T01:29:23.706Z,3.29
2017-03-28T01:30:23.712Z,3.32
2017-03-28T01:31:17.736Z,3.32
2017-03-28T01:32:17.747Z,3.32
2017-03-28T01:33:12.789Z,3.29
2017-03-28T01:34:07.792Z,3.32
2017-03-28T01:35:08.840Z,3.40
2017-03-28T01:36:08.887Z,3.41
2017-03-28T01:37:03.853Z,3.41
2017-03-28T01:38:03.998Z,3.42
2017-03-28T01:39:03.960Z,3.38
2017-03-28T01:40:09.925Z,3.37
2017-03-28T01:41:04.954Z,3.36
2017-03-28T01:42:05.009Z,3.34
2017-03-28T01:43:00.052Z,3.36
2017-03-28T01:43:55.115Z,3.36
2017-03-28T01:44:56.272Z,3.42
2017-03-28T01:45:56.109Z,3.43
2017-03-28T01:46:56.135Z,3.48
2017-03-28T01:47:56.267Z,3.48
2017-03-28T01:48:57.283Z,3.46
2017-03-28T01:49:58.250Z,3.48
2017-03-28T01:50:52.301Z,3.50
2017-03-28T01:51:52.326Z,3.58
2017-03-28T01:52:47.334Z,3.62
2017-03-28T01:53:42.379Z,3.62
2017-03-28T01:54:42.460Z,3.61
2017-03-28T01:55:37.420Z,3.66
2017-03-28T01:56:32.440Z,3.73
2017-03-28T01:57:32.453Z,3.72
2017-03-28T01:58:27.511Z,3.69
2017-03-28T01:59:22.536Z,3.70
2017-03-28T02:00:23.649Z,3.66
2017-03-28T02:01:23.708Z,3.62
2017-03-28T02:02:23.625Z,3.60
2017-03-28T02:03:18.643Z,3.60
2017-03-28T02:04:18.652Z,3.56
2017-03-28T02:05:18.729Z,3.58
2017-03-28T02:06:12.742Z,3.56
2017-03-28T02:07:13.752Z,3.52
2017-03-28T02:08:13.763Z,3.50
2017-03-28T02:09:13.790Z,3.50
2017-03-28T02:10:13.908Z,3.52
2017-03-28T02:11:19.842Z,3.54
2017-03-28T02:12:14.948Z,3.56
2017-03-28T02:13:14.886Z,3.53
2017-03-28T02:14:08.963Z,3.54
2017-03-28T02:15:08.959Z,3.50
2017-03-28T02:16:03.973Z,3.48
2017-03-28T02:17:04.018Z,3.48
2017-03-28T02:18:04.091Z,3.50
2017-03-28T02:19:04.137Z,3.52
2017-03-28T02:19:58.118Z,3.54
2017-03-28T02:20:58.140Z,3.58
2017-03-28T02:21:53.184Z,3.62
2017-03-28T02:22:48.156Z,3.60
2017-03-28T02:23:48.258Z,3.63
2017-03-28T02:24:43.254Z,3.60
2017-03-28T02:25:38.253Z,3.59
2017-03-28T02:26:38.299Z,3.57
2017-03-28T02:27:33.321Z,3.56
2017-03-28T02:28:33.299Z,3.54
2017-03-28T02:29:33.378Z,3.50
2017-03-28T02:30:33.670Z,3.46
2017-03-28T02:31:27.444Z,3.43
2017-03-28T02:32:27.431Z,3.36
2017-03-28T02:33:22.473Z,3.34
2017-03-28T02:34:22.574Z,3.30
2017-03-28T02:35:22.542Z,3.30
2017-03-28T02:36:22.548Z,3.28
2017-03-28T02:37:16.618Z,3.28
2017-03-28T02:38:17.633Z,3.30
2017-03-28T02:39:17.612Z,3.30
2017-03-28T02:40:12.650Z,3.31
2017-03-28T02:41:12.713Z,3.30
2017-03-28T02:42:06.845Z,3.31
2017-03-28T02:43:06.748Z,3.36
2017-03-28T02:44:01.747Z,3.36
2017-03-28T02:44:56.820Z,3.36
2017-03-28T02:45:56.830Z,3.34
2017-03-28T02:46:51.855Z,3.40
2017-03-28T02:47:46.920Z,3.38
2017-03-28T02:48:46.973Z,3.42
2017-03-28T02:49:41.983Z,3.46
2017-03-28T02:50:42.022Z,3.47
2017-03-28T02:51:41.990Z,3.57
2017-03-28T02:52:42.111Z,3.70
2017-03-28T02:53:36.064Z,3.80
2017-03-28T02:54:36.071Z,3.86
2017-03-28T02:55:31.139Z,3.89
2017-03-28T02:56:31.139Z,3.86
2017-03-28T02:57:31.127Z,3.84
2017-03-28T02:58:31.212Z,3.76
2017-03-28T02:59:25.220Z,3.74
2017-03-28T03:00:25.239Z,3.68
2017-03-28T03:01:20.256Z,3.66
2017-03-28T03:02:15.334Z,3.60
2017-03-28T03:03:16.338Z,3.55
2017-03-28T03:04:16.380Z,3.55
2017-03-28T03:05:16.395Z,3.58
2017-03-28T03:06:11.387Z,3.59
2017-03-28T03:07:05.448Z,3.63
2017-03-28T03:08:05.464Z,3.64
2017-03-28T03:09:00.499Z,3.62
2017-03-28T03:10:00.630Z,3.60
2017-03-28T03:10:54.545Z,3.54
2017-03-28T03:11:54.571Z,3.50
2017-03-28T03:12:49.650Z,3.49
2017-03-28T03:13:44.726Z,3.46
2017-03-28T03:14:44.637Z,3.46
2017-03-28T03:15:39.740Z,3.50
2017-03-28T03:16:34.727Z,3.48
2017-03-28T03:17:35.754Z,3.50
2017-03-28T03:18:35.763Z,3.52
2017-03-28T03:19:35.834Z,3.52
2017-03-28T03:20:30.833Z,3.50
2017-03-28T03:21:24.854Z,3.48
2017-03-28T03:22:25.895Z,3.47
2017-03-28T03:23:26.072Z,3.46
2017-03-28T03:24:25.954Z,3.44
2017-03-28T03:25:20.951Z,3.45
2017-03-28T03:26:14.986Z,3.46
2017-03-28T03:27:15.043Z,3.49
2017-03-28T03:28:10.029Z,3.50
2017-03-28T03:29:10.105Z,3.52
2017-03-28T03:30:10.097Z,3.52
2017-03-28T03:31:10.134Z,3.56
2017-03-28T03:32:10.144Z,3.64
2017-03-28T03:33:10.232Z,3.70
2017-03-28T03:34:04.239Z,3.76
2017-03-28T03:35:04.267Z,3.80
2017-03-28T03:35:59.218Z,3.84
2017-03-28T03:36:54.322Z,3.90
2017-03-28T03:37:55.393Z,3.98
2017-03-28T03:38:55.352Z,4.00
2017-03-28T03:39:55.339Z,4.06
2017-03-28T03:40:50.409Z,4.11
2017-03-28T03:41:44.394Z,4.12
2017-03-28T03:42:44.457Z,4.20
2017-03-28T03:43:39.518Z,4.26
2017-03-28T03:44:39.553Z,4.28
2017-03-28T03:45:33.546Z,4.28
2017-03-28T03:46:33.591Z,4.28
2017-03-28T03:47:28.596Z,4.22
2017-03-28T03:48:23.649Z,4.20
2017-03-28T03:49:23.635Z,4.20
2017-03-28T03:50:18.694Z,4.19
2017-03-28T03:51:13.842Z,4.18
2017-03-28T03:52:14.685Z,4.22
2017-03-28T03:53:14.696Z,4.27
2017-03-28T03:54:14.740Z,4.28
2017-03-28T03:55:09.830Z,4.29
2017-03-28T03:56:03.946Z,4.28
2017-03-28T03:57:03.896Z,4.26
2017-03-28T03:57:58.968Z,4.22
2017-03-28T03:58:58.959Z,4.24
2017-03-28T03:59:52.986Z,4.24
2017-03-28T04:00:53.980Z,4.22
2017-03-28T04:01:55.054Z,4.20
2017-03-28T04:02:50.055Z,4.22
2017-03-28T04:03:44.071Z,4.21
2017-03-28T04:04:45.117Z,4.16
2017-03-28T04:05:45.159Z,4.12
2017-03-28T04:06:45.145Z,4.08
2017-03-28T04:07:40.218Z,4.04
2017-03-28T04:08:34.220Z,4.00
2017-03-28T04:09:34.244Z,3.98
2017-03-28T04:10:29.284Z,3.96
2017-03-28T04:11:35.326Z,3.92
2017-03-28T04:12:30.312Z,3.88
2017-03-28T04:13:24.374Z,3.86
2017-03-28T04:14:25.391Z,3.84
2017-03-28T04:15:20.436Z,3.85
2017-03-28T04:16:14.455Z,3.85
2017-03-28T04:17:14.463Z,3.84
2017-03-28T04:18:09.523Z,3.84
2017-03-28T04:19:09.551Z,3.86
2017-03-28T04:20:03.960Z,3.82
2017-03-28T04:21:03.933Z,3.76
2017-03-28T04:21:58.602Z,3.70
2017-03-28T04:22:53.658Z,3.60
2017-03-28T04:23:53.663Z,3.54
2017-03-28T04:24:48.672Z,3.47
2017-03-28T04:25:43.955Z,3.40
2017-03-28T04:26:43.696Z,3.32
2017-03-28T04:27:38.779Z,3.28
2017-03-28T04:28:33.868Z,3.23
2017-03-28T04:29:34.852Z,3.14
2017-03-28T04:30:34.828Z,3.08
2017-03-28T04:31:34.902Z,3.04
2017-03-28T04:32:30.195Z,3.02
2017-03-28T04:33:23.942Z,3.02
2017-03-28T04:34:24.976Z,3.03
2017-03-28T04:35:25.002Z,3.06
2017-03-28T04:36:25.239Z,3.06
2017-03-28T04:37:25.043Z,3.06
2017-03-28T04:38:31.046Z,3.04
2017-03-28T04:39:26.146Z,3.07
2017-03-28T04:40:26.210Z,3.04
2017-03-28T04:41:20.199Z,3.04
2017-03-28T04:42:20.411Z,3.02
2017-03-28T04:43:15.541Z,2.98
2017-03-28T04:44:15.263Z,2.94
2017-03-28T04:45:15.237Z,2.88
2017-03-28T04:46:15.306Z,2.84
2017-03-28T04:47:09.388Z,2.84
2017-03-28T04:48:09.440Z,2.88
2017-03-28T04:49:04.400Z,2.93
2017-03-28T04:49:59.434Z,2.97
2017-03-28T04:50:53.702Z,3.00
2017-03-28T04:51:53.428Z,3.09
2017-03-28T04:52:48.492Z,3.16
2017-03-28T04:53:43.796Z,3.18
2017-03-28T04:54:43.554Z,3.19
2017-03-28T04:55:38.601Z,3.18
2017-03-28T04:56:33.657Z,3.16
2017-03-28T04:57:33.610Z,3.16
2017-03-28T04:58:28.704Z,3.12
2017-03-28T04:59:28.716Z,3.09
2017-03-28T05:00:29.721Z,3.06
2017-03-28T05:01:30.736Z,3.04
2017-03-28T05:02:25.067Z,3.00
2017-03-28T05:03:25.087Z,2.98
2017-03-28T05:04:19.850Z,2.90
2017-03-28T05:05:14.960Z,2.84
2017-03-28T05:06:08.909Z,2.82
2017-03-28T05:07:08.931Z,2.77
2017-03-28T05:08:04.015Z,2.79
2017-03-28T05:08:58.972Z,2.74
2017-03-28T05:09:58.964Z,2.74
2017-03-28T05:10:59.057Z,2.75
2017-03-28T05:11:59.044Z,2.72
2017-03-28T05:12:54.110Z,2.68
2017-03-28T05:13:49.133Z,2.66
2017-03-28T05:14:43.159Z,2.60
2017-03-28T05:15:44.197Z,2.62
2017-03-28T05:16:39.293Z,2.58
2017-03-28T05:17:39.224Z,2.62
2017-03-28T05:18:39.249Z,2.68
2017-03-28T05:19:39.255Z,2.72
2017-03-28T05:20:39.293Z,2.68
2017-03-28T05:21:39.330Z,2.77
2017-03-28T05:22:39.352Z,2.79
2017-03-28T05:23:39.350Z,2.80
2017-03-28T05:24:45.385Z,2.78
2017-03-28T05:25:40.450Z,2.82
2017-03-28T05:26:40.474Z,2.83
2017-03-28T05:27:40.545Z,2.84
2017-03-28T05:28:40.533Z,2.84
2017-03-28T05:29:40.621Z,2.84
2017-03-28T05:30:34.556Z,2.87
2017-03-28T05:31:34.575Z,2.86
2017-03-28T05:32:29.649Z,2.86
2017-03-28T05:33:24.647Z,2.82
2017-03-28T05:34:24.730Z,2.92
2017-03-28T05:35:24.748Z,2.96
2017-03-28T05:36:18.762Z,3.00
2017-03-28T05:37:18.764Z,3.02
2017-03-28T05:38:13.805Z,3.10
2017-03-28T05:39:13.842Z,3.14
2017-03-28T05:40:13.845Z,3.18
2017-03-28T05:41:13.972Z,3.22
2017-03-28T05:42:13.970Z,3.18
2017-03-28T05:43:13.941Z,3.15
2017-03-28T05:44:07.924Z,3.22
2017-03-28T05:45:08.214Z,3.20
2017-03-28T05:46:03.377Z,3.26
2017-03-28T05:47:03.353Z,3.26
2017-03-28T05:48:04.399Z,3.20
2017-03-28T05:49:05.546Z,3.22
2017-03-28T05:50:06.535Z,3.22
2017-03-28T05:51:00.279Z,3.24
2017-03-28T05:52:00.219Z,3.36
2017-03-28T05:52:55.204Z,3.42
2017-03-28T05:53:50.229Z,3.45
2017-03-28T05:54:44.305Z,3.56
2017-03-28T05:55:44.326Z,3.62
2017-03-28T05:56:39.645Z,3.84
2017-03-28T05:57:34.445Z,4.14
2017-03-28T05:58:34.371Z,4.57
2017-03-28T05:59:29.425Z,5.14
2017-03-28T06:00:24.509Z,5.60
2017-03-28T06:01:18.731Z,6.20
2017-03-28T06:02:20.171Z,6.79
2017-03-28T06:03:14.539Z,7.31
2017-03-28T06:04:14.551Z,7.80
2017-03-28T06:05:14.611Z,8.16
2017-03-28T06:06:14.633Z,8.33
2017-03-28T06:07:14.640Z,8.84
2017-03-28T06:08:15.211Z,9.13
2017-03-28T06:09:20.720Z,9.50
2017-03-28T06:10:15.674Z,9.83
2017-03-28T06:11:15.753Z,10.05
2017-03-28T06:12:15.770Z,10.26
2017-03-28T06:13:10.160Z,10.38
2017-03-28T06:14:10.452Z,10.64
2017-03-28T06:15:04.950Z,10.87
2017-03-28T06:15:59.992Z,11.09
2017-03-28T06:16:53.945Z,11.38
2017-03-28T06:17:54.006Z,11.58
2017-03-28T06:18:49.053Z,11.88
2017-03-28T06:19:49.351Z,11.88
2017-03-28T06:20:49.140Z,12.22
2017-03-28T06:21:49.157Z,12.42
2017-03-28T06:22:43.453Z,12.58
2017-03-28T06:23:44.433Z,12.66
2017-03-28T06:24:45.211Z,13.00
2017-03-28T06:25:45.455Z,13.06
2017-03-28T06:26:40.304Z,13.21
2017-03-28T06:27:35.342Z,13.27
2017-03-28T06:28:35.345Z,13.54
2017-03-28T06:29:30.443Z,13.74
2017-03-28T06:30:25.475Z,13.78
2017-03-28T06:31:19.681Z,13.81
2017-03-28T06:32:19.511Z,13.80
2017-03-28T06:33:14.871Z,13.90
2017-03-28T06:34:14.814Z,14.32
2017-03-28T06:35:14.718Z,14.56
2017-03-28T06:36:14.869Z,14.52
2017-03-28T06:37:08.730Z,14.48
2017-03-28T06:38:08.771Z,14.84
2017-03-28T06:39:03.823Z,15.05
2017-03-28T06:39:58.802Z,15.12
2017-03-28T06:40:52.855Z,15.30
2017-03-28T06:41:52.856Z,15.24
2017-03-28T06:42:48.338Z,15.26
2017-03-28T06:43:41.967Z,15.30
2017-03-28T06:44:42.029Z,15.44
2017-03-28T06:45:36.061Z,15.55
2017-03-28T06:46:30.147Z,15.76
2017-03-28T06:47:19.617Z,15.94
2017-03-28T06:48:13.155Z,16.02
2017-03-28T06:49:08.228Z,16.10
2017-03-28T06:50:03.234Z,16.18
2017-03-28T06:50:57.277Z,16.32
2017-03-28T06:51:51.632Z,16.33
2017-03-28T06:52:46.376Z,16.48
2017-03-28T06:53:40.682Z,16.56
2017-03-28T06:54:34.443Z,16.64
2017-03-28T06:55:28.524Z,16.88
2017-03-28T06:56:22.819Z,16.99
2017-03-28T06:57:16.628Z,17.12
2017-03-28T06:58:16.787Z,17.12
2017-03-28T06:59:10.664Z,17.20
2017-03-28T07:00:10.834Z,17.16
2017-03-28T07:01:04.756Z,17.22
2017-03-28T07:01:54.105Z,17.17
2017-03-28T07:02:54.290Z,17.27
2017-03-28T07:03:42.070Z,17.22
2017-03-28T07:04:36.973Z,17.29
2017-03-28T07:05:42.939Z,17.45
2017-03-28T07:06:37.989Z,17.29
2017-03-28T07:07:27.039Z,17.39
2017-03-28T07:08:21.117Z,17.40
2017-03-28T07:09:15.104Z,17.39
2017-03-28T07:10:09.236Z,17.61
2017-03-28T07:11:09.225Z,17.75
2017-03-28T07:12:04.270Z,17.58
2017-03-28T07:13:04.324Z,17.72
2017-03-28T07:14:04.348Z,18.02
2017-03-28T07:14:59.362Z,18.19
2017-03-28T07:15:59.388Z,18.28
2017-03-28T07:16:54.450Z,18.37
2017-03-28T07:17:43.581Z,18.33
2017-03-28T07:18:32.543Z,18.02
2017-03-28T07:19:20.635Z,18.00
2017-03-28T07:20:14.633Z,18.05
2017-03-28T07:21:08.728Z,18.16
2017-03-28T07:22:02.785Z,18.00
2017-03-28T07:22:57.078Z,17.89
2017-03-28T07:23:57.361Z,18.12
2017-03-28T07:24:50.939Z,18.33
2017-03-28T07:25:45.929Z,18.38
2017-03-28T07:26:35.550Z,17.93
2017-03-28T07:27:24.011Z,17.83
2017-03-28T07:28:12.082Z,17.86
2017-03-28T07:29:00.673Z,17.98
2017-03-28T07:29:54.249Z,18.30
2017-03-28T07:30:43.262Z,18.30
2017-03-28T07:31:37.283Z,18.56
2017-03-28T07:32:37.344Z,18.73
2017-03-28T07:33:25.387Z,18.91
2017-03-28T07:34:19.455Z,18.91
2017-03-28T07:35:19.451Z,18.36
2017-03-28T07:36:08.535Z,18.46
2017-03-28T07:37:08.536Z,18.14
2017-03-28T07:38:03.865Z,18.10
2017-03-28T07:38:58.685Z,18.04
2017-03-28T07:39:46.703Z,18.11
2017-03-28T07:40:34.710Z,18.16
2017-03-28T07:41:28.769Z,18.35
2017-03-28T07:42:28.990Z,18.34
2017-03-28T07:43:18.132Z,18.47
2017-03-28T07:44:12.978Z,18.73
2017-03-28T07:45:07.958Z,18.32
2017-03-28T07:46:03.087Z,18.12
2017-03-28T07:46:57.057Z,18.15
2017-03-28T07:47:51.157Z,18.12
2017-03-28T07:48:45.162Z,18.45
2017-03-28T07:49:40.144Z,18.55
2017-03-28T07:50:40.213Z,18.91
2017-03-28T07:51:35.637Z,19.22
2017-03-28T07:52:30.359Z,19.12
2017-03-28T07:53:31.444Z,19.19
2017-03-28T07:54:31.450Z,19.68
2017-03-28T07:55:25.642Z,19.87
2017-03-28T07:56:20.573Z,19.20
2017-03-28T07:57:15.589Z,18.89
2017-03-28T07:58:04.628Z,18.84
2017-03-28T07:58:53.757Z,18.93
2017-03-28T07:59:47.738Z,18.48
2017-03-28T08:00:41.758Z,18.05
2017-03-28T08:01:30.825Z,17.84
2017-03-28T08:02:24.979Z,17.72
2017-03-28T08:03:24.968Z,17.84
2017-03-28T08:04:12.956Z,18.16
2017-03-28T08:05:13.041Z,18.16
2017-03-28T08:06:01.058Z,18.32
2017-03-28T08:06:50.146Z,18.30
2017-03-28T08:07:50.296Z,18.55
2017-03-28T08:08:38.675Z,18.65
2017-03-28T08:09:27.613Z,18.64
2017-03-28T08:10:22.361Z,18.71
2017-03-28T08:11:16.364Z,18.53
2017-03-28T08:12:04.503Z,18.38
2017-03-28T08:13:04.544Z,18.25
2017-03-28T08:13:52.568Z,18.24
2017-03-28T08:14:47.109Z,18.38
2017-03-28T08:15:35.697Z,18.36
2017-03-28T08:16:30.773Z,18.70
2017-03-28T08:17:24.770Z,18.77
2017-03-28T08:18:19.825Z,18.71
2017-03-28T08:19:13.984Z,18.62
2017-03-28T08:20:01.995Z,18.72
2017-03-28T08:21:02.053Z,18.80
2017-03-28T08:21:57.016Z,18.84
2017-03-28T08:22:51.105Z,18.76
2017-03-28T08:23:45.097Z,18.90
2017-03-28T08:24:34.157Z,19.02
2017-03-28T08:25:34.568Z,18.96
2017-03-28T08:26:34.396Z,19.24
2017-03-28T08:27:28.393Z,19.55
2017-03-28T08:28:23.375Z,19.52
2017-03-28T08:29:17.698Z,19.43
2017-03-28T08:30:05.476Z,19.36
2017-03-28T08:30:54.655Z,19.34
2017-03-28T08:31:48.558Z,19.72
2017-03-28T08:32:43.988Z,20.09
2017-03-28T08:33:32.792Z,20.17
2017-03-28T08:34:32.768Z,20.42
2017-03-28T08:35:32.786Z,20.46
2017-03-28T08:36:22.171Z,20.41
2017-03-28T08:37:16.376Z,20.30
2017-03-28T08:38:04.951Z,19.67
2017-03-28T08:39:00.035Z,19.78
2017-03-28T08:39:54.183Z,20.20
2017-03-28T08:40:49.097Z,20.50
2017-03-28T08:41:50.149Z,20.70
2017-03-28T08:42:50.182Z,20.68
2017-03-28T08:43:44.290Z,20.64
2017-03-28T08:44:38.326Z,20.55
2017-03-28T08:45:27.364Z,20.76
2017-03-28T08:46:22.439Z,20.91
2017-03-28T08:47:22.764Z,20.90
2017-03-28T08:48:17.825Z,20.80
2017-03-28T08:49:11.820Z,20.74
2017-03-28T08:50:06.259Z,20.58
2017-03-28T08:51:00.704Z,20.60
2017-03-28T08:51:54.775Z,21.05
2017-03-28T08:52:54.849Z,21.42
2017-03-28T08:53:50.173Z,21.66
2017-03-28T08:54:44.942Z,22.12
2017-03-28T08:55:33.945Z,22.05
2017-03-28T08:56:28.029Z,22.02
2017-03-28T08:57:23.025Z,22.19
2017-03-28T08:58:18.273Z,22.37
2017-03-28T08:59:18.351Z,22.21
2017-03-28T09:00:07.363Z,22.00
2017-03-28T09:00:56.268Z,22.37
2017-03-28T09:01:50.615Z,22.70
2017-03-28T09:02:45.388Z,22.48
2017-03-28T09:03:40.029Z,22.42
2017-03-28T09:04:34.529Z,22.68
2017-03-28T09:05:28.647Z,22.96
2017-03-28T09:06:16.613Z,22.95
2017-03-28T09:07:05.678Z,23.07
2017-03-28T09:08:00.750Z,22.87
2017-03-28T09:08:56.018Z,23.00
2017-03-28T09:09:43.900Z,22.46
2017-03-28T09:10:37.954Z,22.22
2017-03-28T09:11:32.019Z,22.25
2017-03-28T09:12:21.307Z,22.38
2017-03-28T09:13:09.145Z,22.52
2017-03-28T09:13:58.192Z,22.60
2017-03-28T09:14:58.230Z,22.73
2017-03-28T09:15:58.234Z,23.18
2017-03-28T09:16:52.686Z,23.30
2017-03-28T09:17:46.351Z,23.30
2017-03-28T09:18:34.447Z,23.32
2017-03-28T09:19:28.762Z,22.98
2017-03-28T09:20:23.843Z,22.99
2017-03-28T09:21:23.855Z,23.00
2017-03-28T09:22:17.634Z,22.63
2017-03-28T09:23:11.722Z,22.46
2017-03-28T09:24:05.771Z,22.18
2017-03-28T09:25:00.794Z,22.65
2017-03-28T09:25:56.206Z,23.02
2017-03-28T09:26:49.922Z,22.84
2017-03-28T09:27:43.938Z,22.97
2017-03-28T09:28:38.048Z,22.78
2017-03-28T09:29:26.393Z,22.90
2017-03-28T09:30:21.162Z,22.69
2017-03-28T09:31:10.217Z,22.62
2017-03-28T09:32:10.244Z,23.06
2017-03-28T09:33:04.332Z,22.99
2017-03-28T09:33:58.610Z,22.45
2017-03-28T09:34:46.437Z,22.22
2017-03-28T09:35:40.552Z,22.16
2017-03-28T09:36:29.530Z,22.08
2017-03-28T09:37:18.624Z,22.10
2017-03-28T09:38:18.687Z,22.24
2017-03-28T09:39:12.715Z,22.02
2017-03-28T09:40:07.942Z,22.32
2017-03-28T09:41:07.850Z,22.51
2017-03-28T09:42:02.921Z,22.96
2017-03-28T09:43:03.006Z,23.35
2017-03-28T09:43:58.347Z,23.22
2017-03-28T09:44:46.065Z,23.20
2017-03-28T09:45:35.248Z,23.37
2017-03-28T09:46:29.829Z,23.00
2017-03-28T09:47:23.233Z,23.01
2017-03-28T09:48:23.338Z,22.55
2017-03-28T09:49:18.345Z,22.34
2017-03-28T09:50:12.441Z,22.22
2017-03-28T09:51:01.511Z,22.26
2017-03-28T09:51:50.928Z,22.40
2017-03-28T09:52:44.611Z,22.64
2017-03-28T09:53:38.659Z,22.93
2017-03-28T09:54:27.734Z,23.12
2017-03-28T09:55:28.960Z,22.94
2017-03-28T09:56:17.803Z,23.17
2017-03-28T09:57:06.221Z,23.17
2017-03-28T09:58:05.886Z,23.16
2017-03-28T09:59:00.290Z,22.91
2017-03-28T09:59:49.043Z,22.68
2017-03-28T10:00:44.075Z,22.30
2017-03-28T10:01:33.265Z,22.38
2017-03-28T10:02:27.227Z,22.27
2017-03-28T10:03:21.232Z,22.39
2017-03-28T10:04:09.311Z,22.55
2017-03-28T10:05:09.344Z,23.01
2017-03-28T10:06:03.718Z,23.06
2017-03-28T10:06:57.523Z,22.78
2017-03-28T10:07:46.707Z,22.80
2017-03-28T10:08:40.616Z,23.05
2017-03-28T10:09:35.726Z,23.04
2017-03-28T10:10:29.740Z,23.50
2017-03-28T10:11:17.807Z,23.99
2017-03-28T10:12:17.990Z,24.49
2017-03-28T10:13:11.949Z,24.62
2017-03-28T10:14:06.265Z,24.57
2017-03-28T10:14:54.071Z,24.50
2017-03-28T10:15:49.161Z,24.67
2017-03-28T10:16:43.226Z,24.72
2017-03-28T10:17:37.253Z,24.55
2017-03-28T10:18:31.372Z,24.57
2017-03-28T10:19:19.630Z,24.86
2017-03-28T10:20:08.506Z,25.21
2017-03-28T10:20:57.629Z,25.28
2017-03-28T10:21:52.650Z,24.88
2017-03-28T10:22:46.726Z,25.04
2017-03-28T10:23:42.123Z,25.17
2017-03-28T10:24:31.180Z,24.49
2017-03-28T10:25:25.971Z,24.52
2017-03-28T10:26:15.053Z,24.66
2017-03-28T10:27:09.083Z,25.04
2017-03-28T10:28:04.208Z,24.73
2017-03-28T10:28:58.354Z,24.32
2017-03-28T10:29:52.338Z,24.00
2017-03-28T10:30:41.371Z,23.69
2017-03-28T10:31:35.470Z,23.87
2017-03-28T10:32:24.698Z,23.99
2017-03-28T10:33:18.623Z,24.14
2017-03-28T10:34:13.148Z,24.34
2017-03-28T10:35:06.736Z,24.82
2017-03-28T10:35:55.775Z,24.87
2017-03-28T10:36:49.861Z,24.70
2017-03-28T10:37:49.922Z,24.73
2017-03-28T10:38:44.961Z,24.38
2017-03-28T10:39:39.359Z,24.42
2017-03-28T10:40:28.148Z,24.15
2017-03-28T10:41:23.236Z,23.81
2017-03-28T10:42:17.449Z,23.48
2017-03-28T10:43:06.401Z,23.36
2017-03-28T10:43:54.491Z,23.28
2017-03-28T10:44:43.777Z,23.26
2017-03-28T10:45:38.526Z,23.26
2017-03-28T10:46:32.612Z,23.46
2017-03-28T10:47:21.934Z,23.24
2017-03-28T10:48:15.655Z,23.24
2017-03-28T10:49:03.763Z,23.15
2017-03-28T10:49:58.827Z,23.29
2017-03-28T10:50:47.864Z,23.48
2017-03-28T10:51:47.948Z,23.92
2017-03-28T10:52:42.226Z,23.64
2017-03-28T10:53:36.064Z,23.55
2017-03-28T10:54:30.159Z,23.97
2017-03-28T10:55:24.238Z,24.57
2017-03-28T10:56:13.254Z,24.63
2017-03-28T10:57:01.334Z,24.72
2017-03-28T10:57:55.478Z,24.84
2017-03-28T10:58:44.570Z,24.48
2017-03-28T10:59:44.557Z,24.62
2017-03-28T11:00:38.932Z,24.62
2017-03-28T11:01:32.690Z,24.39
2017-03-28T11:02:21.736Z,24.43
2017-03-28T11:03:15.798Z,24.14
2017-03-28T11:04:09.868Z,24.15
2017-03-28T11:05:03.976Z,24.46
2017-03-28T11:05:59.116Z,24.40
2017-03-28T11:06:47.386Z,24.26
2017-03-28T11:07:41.221Z,23.91
2017-03-28T11:08:29.284Z,23.89
2017-03-28T11:09:24.274Z,23.88
2017-03-28T11:10:18.649Z,24.02
2017-03-28T11:11:07.582Z,23.99
2017-03-28T11:12:07.549Z,24.10
2017-03-28T11:13:07.709Z,24.16
2017-03-28T11:13:56.708Z,24.02
2017-03-28T11:14:45.859Z,23.99
2017-03-28T11:15:40.832Z,24.36
2017-03-28T11:16:41.976Z,24.75
2017-03-28T11:17:35.966Z,25.37
2017-03-28T11:18:24.002Z,25.42
2017-03-28T11:19:24.194Z,25.32
2017-03-28T11:20:18.220Z,25.40
2017-03-28T11:21:12.320Z,25.07
2017-03-28T11:22:06.370Z,24.59
2017-03-28T11:22:55.365Z,24.25
2017-03-28T11:23:43.526Z,24.14
2017-03-28T11:24:38.529Z,23.66
2017-03-28T11:25:27.734Z,23.34
2017-03-28T11:26:16.648Z,23.50
2017-03-28T11:27:06.006Z,23.72
2017-03-28T11:27:59.757Z,23.86
2017-03-28T11:28:59.767Z,23.97
2017-03-28T11:29:54.178Z,24.24
2017-03-28T11:30:48.246Z,24.85
2017-03-28T11:31:48.029Z,25.06
2017-03-28T11:32:42.095Z,24.88
2017-03-28T11:33:36.159Z,24.68
2017-03-28T11:34:30.523Z,24.46
2017-03-28T11:35:24.552Z,24.30
2017-03-28T11:36:13.483Z,24.26
2017-03-28T11:37:01.528Z,24.06
2017-03-28T11:37:50.505Z,23.92
2017-03-28T11:38:45.550Z,23.76
2017-03-28T11:39:41.025Z,23.78
2017-03-28T11:40:41.956Z,23.85
2017-03-28T11:41:41.723Z,24.11
2017-03-28T11:42:35.810Z,24.51
2017-03-28T11:43:23.955Z,25.02
2017-03-28T11:44:13.050Z,25.27
2017-03-28T11:45:01.170Z,25.41
2017-03-28T11:45:50.099Z,25.22
2017-03-28T11:46:39.174Z,24.90
2017-03-28T11:47:39.257Z,25.26
2017-03-28T11:48:33.411Z,25.04
2017-03-28T11:49:29.035Z,24.92
2017-03-28T11:50:17.490Z,24.89
2017-03-28T11:51:11.522Z,24.80
2017-03-28T11:52:00.638Z,24.70
2017-03-28T11:52:49.677Z,24.76
2017-03-28T11:53:43.771Z,24.78
2017-03-28T11:54:38.799Z,24.13
2017-03-28T11:55:33.886Z,24.34
2017-03-28T11:56:29.221Z,23.91
2017-03-28T11:57:22.981Z,23.99
2017-03-28T11:58:18.079Z,23.70
2017-03-28T11:59:13.120Z,23.76
2017-03-28T12:00:13.153Z,23.32
2017-03-28T12:01:01.605Z,23.10
2017-03-28T12:01:55.343Z,22.73
2017-03-28T12:02:49.272Z,22.77
2017-03-28T12:03:49.432Z,23.26
2017-03-28T12:04:49.464Z,23.56
2017-03-28T12:05:43.529Z,23.96
2017-03-28T12:06:37.622Z,24.35
2017-03-28T12:07:32.142Z,24.58
2017-03-28T12:08:25.924Z,24.97
2017-03-28T12:09:13.829Z,24.94
2017-03-28T12:10:07.868Z,24.87